createdAt,value
2018-05-23T00:01:36.739Z,2.77
2018-05-23T00:04:02.937Z,2.87
2018-05-23T00:06:29.041Z,3.10
2018-05-23T00:08:54.819Z,3.20
2018-05-23T00:11:20.563Z,3.10
2018-05-23T00:13:46.309Z,3.03
2018-05-23T00:16:12.072Z,2.90
2018-05-23T00:18:37.800Z,2.87
2018-05-23T00:21:03.566Z,2.60
2018-05-23T00:23:29.309Z,3.03
2018-05-23T00:25:55.057Z,2.77
2018-05-23T00:28:20.830Z,3.10
2018-05-23T00:30:46.572Z,3.40
2018-05-23T00:33:12.427Z,3.17
2018-05-23T00:35:38.168Z,2.97
2018-05-23T00:38:03.906Z,2.90
2018-05-23T00:40:29.648Z,3.40
2018-05-23T00:42:55.396Z,3.30
2018-05-23T00:45:21.174Z,3.17
2018-05-23T00:47:46.908Z,3.47
2018-05-23T00:50:12.695Z,3.60
2018-05-23T00:52:38.411Z,3.13
2018-05-23T00:55:16.653Z,3.40
2018-05-23T00:57:42.428Z,3.30
2018-05-23T01:00:08.194Z,3.60
2018-05-23T01:02:33.925Z,3.67
2018-05-23T01:04:59.657Z,3.60
2018-05-23T01:07:25.414Z,3.93
2018-05-23T01:09:51.147Z,3.97
2018-05-23T01:12:16.887Z,3.40
2018-05-23T01:14:42.643Z,3.50
2018-05-23T01:17:08.657Z,3.33
2018-05-23T01:19:34.429Z,3.77
2018-05-23T01:22:00.621Z,3.77
2018-05-23T01:24:26.374Z,4.23
2018-05-23T01:26:52.112Z,4.00
2018-05-23T01:29:17.832Z,3.73
2018-05-23T01:31:43.569Z,3.87
2018-05-23T01:34:09.298Z,4.00
2018-05-23T01:36:35.020Z,3.90
2018-05-23T01:39:00.766Z,3.70
2018-05-23T01:41:26.503Z,4.17
2018-05-23T01:43:52.249Z,4.27
2018-05-23T01:46:18.001Z,4.53
2018-05-23T01:48:56.166Z,4.37
2018-05-23T01:51:21.918Z,4.20
2018-05-23T01:53:48.982Z,4.00
2018-05-23T01:56:14.757Z,4.73
2018-05-23T01:58:40.494Z,4.53
2018-05-23T02:01:06.229Z,4.97
2018-05-23T02:03:31.956Z,5.03
2018-05-23T02:05:57.685Z,4.90
2018-05-23T02:08:23.404Z,4.60
2018-05-23T02:10:49.147Z,4.70
2018-05-23T02:13:14.872Z,4.67
2018-05-23T02:15:40.624Z,4.93
2018-05-23T02:18:06.357Z,4.67
2018-05-23T02:20:32.092Z,4.87
2018-05-23T02:22:57.840Z,4.50
2018-05-23T02:25:23.572Z,5.00
2018-05-23T02:27:49.310Z,5.07
2018-05-23T02:30:15.042Z,5.33
2018-05-23T02:32:40.788Z,5.00
2018-05-23T02:35:06.533Z,5.10
2018-05-23T02:37:32.312Z,5.33
2018-05-23T02:39:59.216Z,5.73
2018-05-23T02:42:25.074Z,5.70
2018-05-23T02:44:50.849Z,5.37
2018-05-23T02:47:16.591Z,5.50
2018-05-23T02:49:42.341Z,5.77
2018-05-23T02:52:09.915Z,5.10
2018-05-23T02:54:35.660Z,4.97
2018-05-23T02:57:01.429Z,5.57
2018-05-23T02:59:27.197Z,5.30
2018-05-23T03:01:53.987Z,6.10
2018-05-23T03:04:19.736Z,6.20
2018-05-23T03:06:45.476Z,6.07
2018-05-23T03:09:11.224Z,6.40
2018-05-23T03:11:36.984Z,6.00
2018-05-23T03:14:02.724Z,5.50
2018-05-23T03:16:28.489Z,5.90
2018-05-23T03:18:54.228Z,5.93
2018-05-23T03:21:19.981Z,5.97
2018-05-23T03:23:45.716Z,5.93
2018-05-23T03:26:11.457Z,5.67
2018-05-23T03:28:37.187Z,5.83
2018-05-23T03:31:02.936Z,6.50
2018-05-23T03:33:28.669Z,6.50
2018-05-23T03:35:54.421Z,6.23
2018-05-23T03:38:20.168Z,6.03
2018-05-23T03:40:45.912Z,5.67
2018-05-23T03:43:11.663Z,6.37
2018-05-23T03:45:37.409Z,6.70
2018-05-23T03:48:03.136Z,6.53
2018-05-23T03:50:28.864Z,6.27
2018-05-23T03:52:54.616Z,6.47
2018-05-23T03:55:20.407Z,6.67
2018-05-23T03:57:46.116Z,6.87
2018-05-23T04:00:24.421Z,6.63
2018-05-23T04:03:02.567Z,6.33
2018-05-23T04:05:40.734Z,6.50
2018-05-23T04:08:06.475Z,6.27
2018-05-23T04:10:32.195Z,5.80
2018-05-23T04:12:57.928Z,6.40
2018-05-23T04:15:23.693Z,6.17
2018-05-23T04:17:49.384Z,5.60
2018-05-23T04:20:15.101Z,6.20
2018-05-23T04:22:40.837Z,5.87
2018-05-23T04:25:06.552Z,5.77
2018-05-23T04:27:32.290Z,6.27
2018-05-23T04:29:58.007Z,5.53
2018-05-23T04:32:23.745Z,5.40
2018-05-23T04:34:49.508Z,5.93
2018-05-23T04:37:15.192Z,6.20
2018-05-23T04:39:40.924Z,5.70
2018-05-23T04:42:06.637Z,5.30
2018-05-23T04:44:32.371Z,5.33
2018-05-23T04:46:58.093Z,5.93
2018-05-23T04:49:23.832Z,5.23
2018-05-23T04:51:49.540Z,5.57
2018-05-23T04:54:15.271Z,5.40
2018-05-23T04:56:40.985Z,6.00
2018-05-23T04:59:06.728Z,5.27
2018-05-23T05:01:32.449Z,5.57
2018-05-23T05:03:58.190Z,5.70
2018-05-23T05:06:23.916Z,5.23
2018-05-23T05:08:49.656Z,5.60
2018-05-23T05:11:15.377Z,5.30
2018-05-23T05:13:41.164Z,4.93
2018-05-23T05:16:06.852Z,5.53
2018-05-23T05:18:32.592Z,5.60
2018-05-23T05:20:58.317Z,5.10
2018-05-23T05:23:24.064Z,4.90
2018-05-23T05:25:49.793Z,5.07
2018-05-23T05:28:15.525Z,5.10
2018-05-23T05:30:41.270Z,4.93
2018-05-23T05:33:06.993Z,5.13
2018-05-23T05:35:32.721Z,4.73
2018-05-23T05:37:58.452Z,4.60
2018-05-23T05:40:24.191Z,4.60
2018-05-23T05:42:49.912Z,5.00
2018-05-23T05:45:15.644Z,4.47
2018-05-23T05:47:41.360Z,4.30
2018-05-23T05:50:07.105Z,4.77
2018-05-23T05:52:32.818Z,4.80
2018-05-23T05:54:58.555Z,4.53
2018-05-23T05:57:24.276Z,4.57
2018-05-23T05:59:50.024Z,4.50
2018-05-23T06:02:15.753Z,4.13
2018-05-23T06:04:41.499Z,4.60
2018-05-23T06:07:07.220Z,3.60
2018-05-23T06:09:32.978Z,4.00
2018-05-23T06:11:58.705Z,3.83
2018-05-23T06:14:24.447Z,3.73
2018-05-23T06:16:50.181Z,3.60
2018-05-23T06:19:15.920Z,3.70
2018-05-23T06:21:41.639Z,3.23
2018-05-23T06:24:07.364Z,3.33
2018-05-23T06:26:33.091Z,3.33
2018-05-23T06:28:58.827Z,3.30
2018-05-23T06:31:24.563Z,3.03
2018-05-23T06:33:50.288Z,3.40
2018-05-23T06:36:16.024Z,3.47
2018-05-23T06:38:41.760Z,3.17
2018-05-23T06:41:07.504Z,2.70
2018-05-23T06:43:33.226Z,2.90
2018-05-23T06:45:58.980Z,2.87
2018-05-23T06:48:24.698Z,2.80
2018-05-23T06:50:50.445Z,2.97
2018-05-23T06:53:16.265Z,2.70
2018-05-23T06:55:42.001Z,2.90
2018-05-23T06:58:07.659Z,3.00
2018-05-23T07:00:33.393Z,2.60
2018-05-23T07:02:59.111Z,2.60
2018-05-23T07:05:24.840Z,3.00
2018-05-23T07:07:50.565Z,2.67
2018-05-23T07:10:16.296Z,2.20
2018-05-23T07:12:42.024Z,2.27
2018-05-23T07:15:07.761Z,2.40
2018-05-23T07:17:33.483Z,2.40
2018-05-23T07:19:59.213Z,2.63
2018-05-23T07:22:24.940Z,2.40
2018-05-23T07:24:50.660Z,2.30
2018-05-23T07:27:16.388Z,2.23
2018-05-23T07:29:42.121Z,2.13
2018-05-23T07:32:07.861Z,2.30
2018-05-23T07:34:33.592Z,2.30
2018-05-23T07:36:59.311Z,2.13
2018-05-23T07:39:25.040Z,2.27
2018-05-23T07:41:50.778Z,2.33
2018-05-23T07:44:16.508Z,2.40
2018-05-23T07:46:42.235Z,2.10
2018-05-23T07:49:07.958Z,2.30
2018-05-23T07:51:33.688Z,2.10
2018-05-23T07:53:59.413Z,2.20
2018-05-23T07:56:25.148Z,2.30
2018-05-23T07:58:50.871Z,2.13
2018-05-23T08:01:16.601Z,1.90
2018-05-23T08:03:42.323Z,2.20
2018-05-23T08:06:08.062Z,1.90
2018-05-23T08:08:33.783Z,2.10
2018-05-23T08:10:59.517Z,1.90
2018-05-23T08:13:25.244Z,1.90
2018-05-23T08:15:50.976Z,2.10
2018-05-23T08:18:16.693Z,2.20
2018-05-23T08:20:42.425Z,1.90
2018-05-23T08:23:08.143Z,2.23
2018-05-23T08:25:33.883Z,2.00
2018-05-23T08:27:59.602Z,2.00
2018-05-23T08:30:25.335Z,2.03
2018-05-23T08:32:51.048Z,2.10
2018-05-23T08:35:16.786Z,2.10
2018-05-23T08:37:42.516Z,1.80
2018-05-23T08:40:08.265Z,1.73
2018-05-23T08:42:34.020Z,2.20
2018-05-23T08:44:59.747Z,2.20
2018-05-23T08:47:25.475Z,1.90
2018-05-23T08:49:51.208Z,1.90
2018-05-23T08:52:16.976Z,2.23
2018-05-23T08:54:42.696Z,1.90
2018-05-23T08:57:08.424Z,2.10
2018-05-23T08:59:34.143Z,1.80
2018-05-23T09:01:59.884Z,2.00
2018-05-23T09:04:25.614Z,1.63
2018-05-23T09:06:51.345Z,1.80
2018-05-23T09:09:17.068Z,1.60
2018-05-23T09:11:42.793Z,1.80
2018-05-23T09:14:08.532Z,1.73
2018-05-23T09:16:34.285Z,1.63
2018-05-23T09:19:00.021Z,1.80
2018-05-23T09:21:25.763Z,2.13
2018-05-23T09:23:51.493Z,1.73
2018-05-23T09:26:17.245Z,1.57
2018-05-23T09:28:42.973Z,1.73
2018-05-23T09:31:08.708Z,1.73
2018-05-23T09:33:34.445Z,1.60
2018-05-23T09:36:00.183Z,1.80
2018-05-23T09:38:25.922Z,1.73
2018-05-23T09:40:51.667Z,1.73
2018-05-23T09:43:17.400Z,1.80
2018-05-23T09:45:43.157Z,1.57
2018-05-23T09:48:08.908Z,1.90
2018-05-23T09:50:34.652Z,1.57
2018-05-23T09:53:01.362Z,1.50
2018-05-23T09:55:28.634Z,1.80
2018-05-23T09:57:54.371Z,1.50
2018-05-23T10:00:24.936Z,1.70
2018-05-23T10:02:51.655Z,1.60
2018-05-23T10:05:17.389Z,1.67
2018-05-23T10:07:43.134Z,1.47
2018-05-23T10:10:08.905Z,1.80
2018-05-23T10:12:34.637Z,1.40
2018-05-23T10:15:01.120Z,1.90
2018-05-23T10:17:26.851Z,1.83
2018-05-23T10:19:52.575Z,1.60
2018-05-23T10:22:20.248Z,1.83
2018-05-23T10:24:45.976Z,1.60
2018-05-23T10:27:11.715Z,1.40
2018-05-23T10:29:37.449Z,1.80
2018-05-23T10:32:03.201Z,1.70
2018-05-23T10:34:28.933Z,1.80
2018-05-23T10:36:54.661Z,1.70
2018-05-23T10:39:20.388Z,1.70
2018-05-23T10:41:46.140Z,1.80
2018-05-23T10:44:11.884Z,1.60
2018-05-23T10:46:37.616Z,2.00
2018-05-23T10:49:03.352Z,1.70
2018-05-23T10:51:29.095Z,1.60
2018-05-23T10:53:54.824Z,1.60
2018-05-23T10:56:20.561Z,1.53
2018-05-23T10:58:46.299Z,1.70
2018-05-23T11:01:12.033Z,1.63
2018-05-23T11:03:37.778Z,1.77
2018-05-23T11:06:03.525Z,2.00
2018-05-23T11:08:29.281Z,2.10
2018-05-23T11:10:55.016Z,1.60
2018-05-23T11:13:20.960Z,1.90
2018-05-23T11:15:46.903Z,1.90
2018-05-23T11:18:12.698Z,1.67
2018-05-23T11:20:38.431Z,1.60
2018-05-23T11:23:04.186Z,1.90
2018-05-23T11:25:29.916Z,2.17
2018-05-23T11:27:55.672Z,1.70
2018-05-23T11:30:21.400Z,1.90
2018-05-23T11:32:47.940Z,1.80
2018-05-23T11:35:13.661Z,1.70
2018-05-23T11:37:39.396Z,1.83
2018-05-23T11:40:05.139Z,1.80
2018-05-23T11:42:30.877Z,1.80
2018-05-23T11:44:56.894Z,2.07
2018-05-23T11:47:23.719Z,1.93
2018-05-23T11:49:49.438Z,2.07
2018-05-23T11:52:15.230Z,1.73
2018-05-23T11:54:40.940Z,2.03
2018-05-23T11:57:06.656Z,1.80
2018-05-23T11:59:32.388Z,1.70
2018-05-23T12:01:58.240Z,1.90
2018-05-23T12:04:23.879Z,2.10
2018-05-23T12:06:49.629Z,1.70
2018-05-23T12:09:15.373Z,1.67
2018-05-23T12:11:48.164Z,2.03
2018-05-23T12:14:13.896Z,1.87
2018-05-23T12:16:39.616Z,1.63
2018-05-23T12:19:05.388Z,1.90
2018-05-23T12:21:31.080Z,1.90
2018-05-23T12:23:57.468Z,1.80
2018-05-23T12:26:23.204Z,1.80
2018-05-23T12:28:48.948Z,1.63
2018-05-23T12:31:14.668Z,2.13
2018-05-23T12:33:40.408Z,1.80
2018-05-23T12:36:06.132Z,2.00
2018-05-23T12:38:31.864Z,1.70
2018-05-23T12:40:58.474Z,1.57
2018-05-23T12:43:24.238Z,1.50
2018-05-23T12:45:50.029Z,2.10
2018-05-23T12:48:15.764Z,1.67
2018-05-23T12:50:41.521Z,1.63
2018-05-23T12:53:07.281Z,1.53
2018-05-23T12:55:33.011Z,1.80
2018-05-23T12:58:05.748Z,2.17
2018-05-23T13:00:31.473Z,1.97
2018-05-23T13:02:58.259Z,1.70
2018-05-23T13:05:23.989Z,1.70
2018-05-23T13:07:49.731Z,2.10
2018-05-23T13:10:15.460Z,1.90
2018-05-23T13:12:41.254Z,1.87
2018-05-23T13:15:06.942Z,2.03
2018-05-23T13:17:32.672Z,1.77
2018-05-23T13:19:58.566Z,1.80
2018-05-23T13:22:24.325Z,1.80
2018-05-23T13:24:50.067Z,1.73
2018-05-23T13:27:15.792Z,1.70
2018-05-23T13:29:41.543Z,1.87
2018-05-23T13:32:07.276Z,2.00
2018-05-23T13:34:33.012Z,1.80
2018-05-23T13:36:58.748Z,1.73
2018-05-23T13:39:24.478Z,1.70
2018-05-23T13:41:50.203Z,1.93
2018-05-23T13:44:15.935Z,1.70
2018-05-23T13:46:41.652Z,1.80
2018-05-23T13:49:07.385Z,2.13
2018-05-23T13:51:34.494Z,2.10
2018-05-23T13:54:00.257Z,2.13
2018-05-23T13:56:25.992Z,1.87
2018-05-23T13:58:51.812Z,1.63
2018-05-23T14:01:17.552Z,2.00
2018-05-23T14:03:43.275Z,2.00
2018-05-23T14:06:08.999Z,1.53
2018-05-23T14:08:34.732Z,1.60
2018-05-23T14:11:00.456Z,1.87
2018-05-23T14:13:26.192Z,2.50
2018-05-23T14:15:51.927Z,1.90
2018-05-23T14:18:17.664Z,2.07
2018-05-23T14:20:43.394Z,1.80
2018-05-23T14:23:09.116Z,1.90
2018-05-23T14:25:34.832Z,1.80
2018-05-23T14:28:00.552Z,1.63
2018-05-23T14:30:26.279Z,1.93
2018-05-23T14:32:52.012Z,2.23
2018-05-23T14:35:17.735Z,2.20
2018-05-23T14:37:43.465Z,1.80
2018-05-23T14:40:09.212Z,1.87
2018-05-23T14:42:34.940Z,2.07
2018-05-23T14:45:00.678Z,1.67
2018-05-23T14:47:26.433Z,2.10
2018-05-23T14:49:52.192Z,2.03
2018-05-23T14:52:17.940Z,1.90
2018-05-23T14:54:43.681Z,2.57
2018-05-23T14:57:09.404Z,1.93
2018-05-23T14:59:35.153Z,2.10
2018-05-23T15:02:00.889Z,2.00
2018-05-23T15:04:26.645Z,1.97
2018-05-23T15:06:52.376Z,2.27
2018-05-23T15:09:18.804Z,2.30
2018-05-23T15:11:43.864Z,2.00
2018-05-23T15:14:09.604Z,2.10
2018-05-23T15:16:35.355Z,2.13
2018-05-23T15:19:01.108Z,2.30
2018-05-23T15:21:26.849Z,2.20
2018-05-23T15:23:52.605Z,2.00
2018-05-23T15:26:18.335Z,2.00
2018-05-23T15:28:44.076Z,1.90
2018-05-23T15:31:09.802Z,2.10
2018-05-23T15:33:35.540Z,1.93
2018-05-23T15:36:01.306Z,1.90
2018-05-23T15:38:27.048Z,2.17
2018-05-23T15:40:52.795Z,2.30
2018-05-23T15:43:18.532Z,2.37
2018-05-23T15:45:44.284Z,2.03
2018-05-23T15:48:10.016Z,2.00
2018-05-23T15:50:35.784Z,2.10
2018-05-23T15:53:01.528Z,2.10
2018-05-23T15:55:27.289Z,1.90
2018-05-23T15:57:53.024Z,2.13
2018-05-23T16:00:18.775Z,1.67
2018-05-23T16:02:44.503Z,2.10
2018-05-23T16:05:10.272Z,2.10
2018-05-23T16:07:35.996Z,1.90
2018-05-23T16:10:01.752Z,1.93
2018-05-23T16:12:27.492Z,1.77
2018-05-23T16:14:53.268Z,2.20
2018-05-23T16:17:18.992Z,1.87
2018-05-23T16:19:44.769Z,2.10
2018-05-23T16:22:10.496Z,2.20
2018-05-23T16:24:36.298Z,1.70
2018-05-23T16:27:02.010Z,1.90
2018-05-23T16:29:27.966Z,1.80
2018-05-23T16:31:53.705Z,2.00
2018-05-23T16:34:19.467Z,2.23
2018-05-23T16:36:45.204Z,2.37
2018-05-23T16:39:10.957Z,2.13
2018-05-23T16:41:36.735Z,2.53
2018-05-23T16:44:02.483Z,1.70
2018-05-23T16:46:28.240Z,2.07
2018-05-23T16:48:53.975Z,1.93
2018-05-23T16:51:19.713Z,2.07
2018-05-23T16:53:45.466Z,2.30
2018-05-23T16:56:11.223Z,2.00
2018-05-23T16:58:36.968Z,2.30
2018-05-23T17:01:02.721Z,1.80
2018-05-23T17:03:28.457Z,2.10
2018-05-23T17:05:54.216Z,1.97
2018-05-23T17:08:19.962Z,2.37
2018-05-23T17:10:45.708Z,2.10
2018-05-23T17:13:11.444Z,2.50
2018-05-23T17:15:37.196Z,2.37
2018-05-23T17:18:02.937Z,2.40
2018-05-23T17:20:28.698Z,2.00
2018-05-23T17:22:54.464Z,2.00
2018-05-23T17:25:20.204Z,1.97
2018-05-23T17:27:45.952Z,2.37
2018-05-23T17:30:11.694Z,2.17
2018-05-23T17:32:37.429Z,2.17
2018-05-23T17:35:03.268Z,2.33
2018-05-23T17:37:29.034Z,2.00
2018-05-23T17:39:54.794Z,2.10
2018-05-23T17:42:20.528Z,2.23
2018-05-23T17:44:46.349Z,2.23
2018-05-23T17:47:12.063Z,2.30
2018-05-23T17:49:37.797Z,2.30
2018-05-23T17:52:03.543Z,2.07
2018-05-23T17:54:29.272Z,2.00
2018-05-23T17:56:55.047Z,2.13
2018-05-23T17:59:20.756Z,1.97
2018-05-23T18:01:46.530Z,2.20
2018-05-23T18:04:12.252Z,2.20
2018-05-23T18:06:38.011Z,2.40
2018-05-23T18:09:04.580Z,2.17
2018-05-23T18:11:30.325Z,2.00
2018-05-23T18:13:56.059Z,1.87
2018-05-23T18:16:21.806Z,1.90
2018-05-23T18:18:47.536Z,2.10
2018-05-23T18:21:13.320Z,2.20
2018-05-23T18:23:39.116Z,2.23
2018-05-23T18:26:04.812Z,2.67
2018-05-23T18:28:30.625Z,2.27
2018-05-23T18:30:56.293Z,2.53
2018-05-23T18:33:22.023Z,2.20
2018-05-23T18:35:47.744Z,2.00
2018-05-23T18:38:13.478Z,1.97
2018-05-23T18:40:39.219Z,2.20
2018-05-23T18:43:04.944Z,2.20
2018-05-23T18:45:30.676Z,2.10
2018-05-23T18:47:56.419Z,2.20
2018-05-23T18:50:22.162Z,2.33
2018-05-23T18:52:47.885Z,2.20
2018-05-23T18:55:13.620Z,2.20
2018-05-23T18:57:39.351Z,2.53
2018-05-23T19:00:05.085Z,2.13
2018-05-23T19:02:30.840Z,2.60
2018-05-23T19:04:56.643Z,2.20
2018-05-23T19:07:22.311Z,2.37
2018-05-23T19:09:48.048Z,2.20
2018-05-23T19:12:13.789Z,2.30
2018-05-23T19:14:39.524Z,2.50
2018-05-23T19:17:05.269Z,2.40
2018-05-23T19:19:31.112Z,2.70
2018-05-23T19:21:56.753Z,2.40
2018-05-23T19:24:22.497Z,2.30
2018-05-23T19:26:48.232Z,2.30
2018-05-23T19:29:13.972Z,2.00
2018-05-23T19:31:39.707Z,2.27
2018-05-23T19:34:05.512Z,2.20
2018-05-23T19:36:31.184Z,2.57
2018-05-23T19:38:56.933Z,2.23
2018-05-23T19:41:22.763Z,2.17
2018-05-23T19:43:48.412Z,2.30
2018-05-23T19:46:14.153Z,2.20
2018-05-23T19:48:39.879Z,2.50
2018-05-23T19:51:05.630Z,2.50
2018-05-23T19:53:31.355Z,2.43
2018-05-23T19:55:57.100Z,2.60
2018-05-23T19:58:22.827Z,2.43
2018-05-23T20:00:48.581Z,2.50
2018-05-23T20:03:14.328Z,2.77
2018-05-23T20:05:40.048Z,2.67
2018-05-23T20:08:05.884Z,2.97
2018-05-23T20:10:31.526Z,2.60
2018-05-23T20:12:57.267Z,2.93
2018-05-23T20:15:23.005Z,2.63
2018-05-23T20:17:48.752Z,2.90
2018-05-23T20:20:14.480Z,2.80
2018-05-23T20:22:40.219Z,3.00
2018-05-23T20:25:05.944Z,2.63
2018-05-23T20:27:31.709Z,2.67
2018-05-23T20:29:57.449Z,2.70
2018-05-23T20:32:23.183Z,2.93
2018-05-23T20:34:48.933Z,2.67
2018-05-23T20:37:14.672Z,2.87
2018-05-23T20:39:40.405Z,2.90
2018-05-23T20:42:06.149Z,3.00
2018-05-23T20:44:31.873Z,2.90
2018-05-23T20:46:57.625Z,2.70
2018-05-23T20:49:23.348Z,3.17
2018-05-23T20:51:49.108Z,3.33
2018-05-23T20:54:14.829Z,3.00
2018-05-23T20:56:40.565Z,2.67
2018-05-23T20:59:06.289Z,3.30
2018-05-23T21:01:32.029Z,3.17
2018-05-23T21:03:57.760Z,3.57
2018-05-23T21:06:23.485Z,3.43
2018-05-23T21:08:49.231Z,3.77
2018-05-23T21:11:14.969Z,3.10
2018-05-23T21:13:40.711Z,3.67
2018-05-23T21:16:06.440Z,3.20
2018-05-23T21:18:32.175Z,3.10
2018-05-23T21:20:57.912Z,3.97
2018-05-23T21:23:23.644Z,3.50
2018-05-23T21:25:49.368Z,3.40
2018-05-23T21:28:15.100Z,3.63
2018-05-23T21:30:40.829Z,3.07
2018-05-23T21:33:06.575Z,3.70
2018-05-23T21:35:32.307Z,3.80
2018-05-23T21:37:58.060Z,4.00
2018-05-23T21:40:23.779Z,3.60
2018-05-23T21:42:49.511Z,3.33
2018-05-23T21:45:15.238Z,3.90
2018-05-23T21:47:41.023Z,3.90
2018-05-23T21:50:06.749Z,3.70
2018-05-23T21:52:32.754Z,4.03
2018-05-23T21:55:00.470Z,3.70
2018-05-23T21:57:26.760Z,3.77
2018-05-23T21:59:52.495Z,4.00
2018-05-23T22:02:18.236Z,3.50
2018-05-23T22:04:44.236Z,3.37
2018-05-23T22:07:09.985Z,3.70
2018-05-23T22:09:35.711Z,4.10
2018-05-23T22:12:01.425Z,4.30
2018-05-23T22:14:27.160Z,3.70
2018-05-23T22:16:52.985Z,3.60
2018-05-23T22:19:18.734Z,3.57
2018-05-23T22:21:44.467Z,3.90
2018-05-23T22:24:10.211Z,3.87
2018-05-23T22:26:35.947Z,5.17
2018-05-23T22:29:01.689Z,3.90
2018-05-23T22:31:27.974Z,4.40
2018-05-23T22:33:53.728Z,4.30
2018-05-23T22:36:19.460Z,4.00
2018-05-23T22:38:45.196Z,3.83
2018-05-23T22:41:10.912Z,3.97
2018-05-23T22:43:36.653Z,4.40
2018-05-23T22:46:06.998Z,4.10
2018-05-23T22:48:32.985Z,4.50
2018-05-23T22:50:59.188Z,4.10
2018-05-23T22:53:24.955Z,4.30
2018-05-23T22:55:50.915Z,4.50
2018-05-23T22:58:16.644Z,3.83
2018-05-23T23:00:42.364Z,4.17
2018-05-23T23:03:08.099Z,4.43
2018-05-23T23:05:33.882Z,3.97
2018-05-23T23:08:01.159Z,4.50
2018-05-23T23:10:26.915Z,3.70
2018-05-23T23:12:52.656Z,4.60
2018-05-23T23:15:18.380Z,4.70
2018-05-23T23:17:44.099Z,4.50
2018-05-23T23:20:10.908Z,4.30
2018-05-23T23:22:37.515Z,4.30
2018-05-23T23:25:03.259Z,4.10
2018-05-23T23:27:28.988Z,4.40
2018-05-23T23:29:54.719Z,4.07
2018-05-23T23:32:20.440Z,3.70
2018-05-23T23:34:46.175Z,4.00
2018-05-23T23:37:12.033Z,4.67
2018-05-23T23:39:37.769Z,4.40
2018-05-23T23:42:03.893Z,4.00
2018-05-23T23:44:29.640Z,3.87
2018-05-23T23:46:55.361Z,4.10
2018-05-23T23:49:21.109Z,4.27
2018-05-23T23:51:46.825Z,4.00
2018-05-23T23:54:12.568Z,4.27
2018-05-23T23:56:38.293Z,4.00
2018-05-23T23:59:04.036Z,4.00
